createdAt,value
2019-01-26T00:02:15.916Z,36.90
2019-01-26T00:04:43.554Z,36.70
2019-01-26T00:07:11.228Z,36.50
2019-01-26T00:09:39.049Z,36.50
2019-01-26T00:12:06.239Z,36.10
2019-01-26T00:14:33.365Z,36.20
2019-01-26T00:17:00.566Z,36.30
2019-01-26T00:19:27.678Z,37.30
2019-01-26T00:21:55.496Z,36.80
2019-01-26T00:24:22.618Z,36.70
2019-01-26T00:26:49.402Z,36.90
2019-01-26T00:29:16.094Z,36.90
2019-01-26T00:31:42.756Z,36.90
2019-01-26T00:34:09.979Z,36.90
2019-01-26T00:36:37.777Z,36.70
2019-01-26T00:39:06.570Z,36.80
2019-01-26T00:41:34.335Z,37.20
2019-01-26T00:44:01.438Z,37.00
2019-01-26T00:46:28.691Z,37.10
2019-01-26T00:48:55.715Z,37.00
2019-01-26T00:51:22.812Z,37.10
2019-01-26T00:53:49.995Z,37.40
2019-01-26T00:56:17.171Z,37.50
2019-01-26T00:58:44.237Z,37.50
2019-01-26T01:01:12.053Z,37.30
2019-01-26T01:03:39.211Z,37.30
2019-01-26T01:06:06.400Z,37.10
2019-01-26T01:08:34.234Z,37.10
2019-01-26T01:11:02.003Z,37.60
2019-01-26T01:13:29.065Z,37.70
2019-01-26T01:15:56.264Z,37.70
2019-01-26T01:18:24.168Z,38.00
2019-01-26T01:20:51.303Z,37.70
2019-01-26T01:23:18.429Z,37.20
2019-01-26T01:25:45.359Z,37.50
2019-01-26T01:28:12.426Z,38.00
2019-01-26T01:30:40.191Z,38.80
2019-01-26T01:33:07.405Z,39.00
2019-01-26T01:35:34.440Z,38.70
2019-01-26T01:38:01.487Z,38.50
2019-01-26T01:40:29.323Z,37.80
2019-01-26T01:42:56.449Z,38.40
2019-01-26T01:45:23.596Z,38.40
2019-01-26T01:47:51.360Z,38.20
2019-01-26T01:50:18.385Z,37.60
2019-01-26T01:52:45.796Z,37.80
2019-01-26T01:55:12.871Z,37.40
2019-01-26T01:57:39.995Z,37.50
2019-01-26T02:00:07.693Z,37.40
2019-01-26T02:02:35.515Z,37.50
2019-01-26T02:05:02.544Z,37.50
2019-01-26T02:07:30.314Z,37.50
2019-01-26T02:09:57.454Z,38.10
2019-01-26T02:12:24.459Z,38.80
2019-01-26T02:14:51.630Z,39.00
2019-01-26T02:17:19.439Z,38.90
2019-01-26T02:19:46.627Z,38.60
2019-01-26T02:22:14.787Z,38.70
2019-01-26T02:24:42.539Z,39.00
2019-01-26T02:27:10.148Z,38.90
2019-01-26T02:29:37.283Z,38.60
2019-01-26T02:32:04.019Z,38.10
2019-01-26T02:34:31.871Z,38.10
2019-01-26T02:36:58.940Z,37.70
2019-01-26T02:39:26.105Z,37.50
2019-01-26T02:41:53.005Z,37.70
2019-01-26T02:44:20.128Z,38.10
2019-01-26T02:46:47.277Z,38.50
2019-01-26T02:49:14.527Z,38.90
2019-01-26T02:51:41.651Z,38.50
2019-01-26T02:54:08.338Z,38.50
2019-01-26T02:56:35.491Z,38.40
2019-01-26T02:59:02.357Z,38.00
2019-01-26T03:01:29.546Z,38.20
2019-01-26T03:03:56.560Z,38.40
2019-01-26T03:06:23.613Z,38.50
2019-01-26T03:08:51.539Z,38.60
2019-01-26T03:11:18.646Z,38.30
2019-01-26T03:13:45.727Z,38.20
2019-01-26T03:16:12.503Z,38.20
2019-01-26T03:18:39.593Z,38.60
2019-01-26T03:21:06.313Z,38.70
2019-01-26T03:23:33.471Z,38.90
2019-01-26T03:26:00.625Z,39.10
2019-01-26T03:28:28.317Z,39.20
2019-01-26T03:30:55.014Z,39.00
2019-01-26T03:33:22.026Z,38.50
2019-01-26T03:35:49.180Z,38.50
2019-01-26T03:38:15.838Z,38.70
2019-01-26T03:40:43.012Z,38.70
2019-01-26T03:43:09.678Z,39.60
2019-01-26T03:45:36.765Z,38.80
2019-01-26T03:48:03.481Z,38.20
2019-01-26T03:50:30.622Z,37.90
2019-01-26T03:52:57.292Z,38.00
2019-01-26T03:55:24.499Z,37.80
2019-01-26T03:57:51.517Z,37.50
2019-01-26T04:00:18.695Z,37.60
2019-01-26T04:02:45.860Z,37.50
2019-01-26T04:05:12.969Z,37.60
2019-01-26T04:07:40.684Z,37.70
2019-01-26T04:10:08.459Z,38.00
2019-01-26T04:12:36.079Z,38.60
2019-01-26T04:15:02.757Z,38.70
2019-01-26T04:17:29.862Z,38.80
2019-01-26T04:19:57.017Z,38.70
2019-01-26T04:22:24.143Z,38.20
2019-01-26T04:24:51.223Z,38.00
2019-01-26T04:27:18.362Z,37.90
2019-01-26T04:29:45.528Z,38.10
2019-01-26T04:32:12.256Z,38.20
2019-01-26T04:34:39.279Z,38.10
2019-01-26T04:37:06.436Z,38.40
2019-01-26T04:39:33.600Z,38.50
2019-01-26T04:42:00.294Z,39.10
2019-01-26T04:44:27.982Z,39.00
2019-01-26T04:46:54.655Z,38.90
2019-01-26T04:49:21.843Z,39.60
2019-01-26T04:51:48.964Z,38.20
2019-01-26T04:54:15.985Z,38.10
2019-01-26T04:56:43.576Z,37.90
2019-01-26T04:59:10.700Z,38.00
2019-01-26T05:01:37.881Z,37.90
2019-01-26T05:04:04.981Z,38.10
2019-01-26T05:06:31.683Z,38.00
2019-01-26T05:08:58.841Z,38.00
2019-01-26T05:11:26.703Z,37.80
2019-01-26T05:13:54.478Z,37.60
2019-01-26T05:16:21.600Z,37.80
2019-01-26T05:18:49.518Z,37.60
2019-01-26T05:21:16.247Z,37.70
2019-01-26T05:23:43.330Z,37.80
2019-01-26T05:26:11.141Z,37.80
2019-01-26T05:28:38.252Z,37.90
2019-01-26T05:31:04.912Z,37.70
2019-01-26T05:33:31.674Z,37.70
2019-01-26T05:35:58.788Z,37.80
2019-01-26T05:38:25.804Z,38.00
2019-01-26T05:40:52.973Z,37.70
2019-01-26T05:43:20.808Z,37.60
2019-01-26T05:45:48.552Z,37.50
2019-01-26T05:48:15.661Z,37.80
2019-01-26T05:50:42.780Z,37.90
2019-01-26T05:53:09.975Z,38.40
2019-01-26T05:55:37.862Z,38.60
2019-01-26T05:58:05.632Z,38.50
2019-01-26T06:00:32.940Z,38.50
2019-01-26T06:02:59.736Z,38.20
2019-01-26T06:05:26.834Z,38.10
2019-01-26T06:07:53.976Z,38.40
2019-01-26T06:10:21.213Z,38.70
2019-01-26T06:12:48.309Z,38.90
2019-01-26T06:15:15.040Z,38.70
2019-01-26T06:17:42.953Z,38.60
2019-01-26T06:20:09.632Z,38.40
2019-01-26T06:22:36.782Z,38.10
2019-01-26T06:25:03.941Z,38.10
2019-01-26T06:27:31.740Z,38.40
2019-01-26T06:29:58.401Z,38.90
2019-01-26T06:32:25.150Z,38.90
2019-01-26T06:34:53.000Z,39.00
2019-01-26T06:37:20.089Z,39.40
2019-01-26T06:39:47.343Z,39.40
2019-01-26T06:42:14.499Z,38.90
2019-01-26T06:44:41.663Z,38.90
2019-01-26T06:47:08.780Z,39.00
2019-01-26T06:49:35.936Z,38.90
2019-01-26T06:52:02.753Z,39.00
2019-01-26T06:54:30.493Z,39.00
2019-01-26T06:56:57.189Z,38.90
2019-01-26T06:59:24.373Z,38.90
2019-01-26T07:01:51.159Z,38.50
2019-01-26T07:04:17.873Z,38.70
2019-01-26T07:06:44.553Z,38.70
2019-01-26T07:09:12.254Z,39.00
2019-01-26T07:11:39.365Z,38.90
2019-01-26T07:14:07.208Z,38.70
2019-01-26T07:16:33.989Z,38.60
2019-01-26T07:19:01.159Z,38.30
2019-01-26T07:21:27.870Z,38.30
2019-01-26T07:23:55.045Z,38.10
2019-01-26T07:26:21.682Z,37.80
2019-01-26T07:28:48.819Z,37.60
2019-01-26T07:31:15.559Z,37.60
2019-01-26T07:33:42.706Z,37.70
2019-01-26T07:36:09.398Z,37.20
2019-01-26T07:38:36.603Z,37.10
2019-01-26T07:41:03.779Z,37.30
2019-01-26T07:43:30.933Z,37.30
2019-01-26T07:45:58.553Z,37.30
2019-01-26T07:48:25.269Z,37.20
2019-01-26T07:50:52.336Z,37.30
2019-01-26T07:53:19.430Z,37.60
2019-01-26T07:55:46.227Z,37.30
2019-01-26T07:58:13.366Z,37.10
2019-01-26T08:00:40.561Z,37.00
2019-01-26T08:03:07.739Z,36.80
2019-01-26T08:05:34.389Z,36.80
2019-01-26T08:08:02.035Z,37.20
2019-01-26T08:10:28.713Z,36.90
2019-01-26T08:12:56.539Z,36.90
2019-01-26T08:15:23.639Z,37.00
2019-01-26T08:17:50.688Z,36.90
2019-01-26T08:20:17.861Z,37.20
2019-01-26T08:22:44.991Z,37.20
2019-01-26T08:25:12.631Z,37.10
2019-01-26T08:27:39.751Z,37.00
2019-01-26T08:30:06.491Z,36.40
2019-01-26T08:32:33.260Z,37.60
2019-01-26T08:35:00.174Z,37.40
2019-01-26T08:37:26.883Z,37.60
2019-01-26T08:39:53.611Z,37.40
2019-01-26T08:42:20.775Z,37.20
2019-01-26T08:44:48.024Z,37.40
2019-01-26T08:47:14.673Z,37.80
2019-01-26T08:49:41.394Z,38.20
2019-01-26T08:52:08.541Z,38.80
2019-01-26T08:54:35.585Z,38.90
2019-01-26T08:57:02.286Z,38.90
2019-01-26T08:59:29.380Z,38.70
2019-01-26T09:01:56.406Z,39.00
2019-01-26T09:04:23.576Z,39.50
2019-01-26T09:06:50.626Z,39.60
2019-01-26T09:09:17.807Z,39.60
2019-01-26T09:11:44.933Z,39.50
2019-01-26T09:14:12.100Z,39.50
2019-01-26T09:16:39.231Z,39.80
2019-01-26T09:19:05.993Z,39.70
2019-01-26T09:21:32.647Z,39.40
2019-01-26T09:23:59.755Z,38.70
2019-01-26T09:26:26.525Z,39.40
2019-01-26T09:28:53.522Z,39.00
2019-01-26T09:31:20.602Z,39.00
2019-01-26T09:33:47.529Z,39.80
2019-01-26T09:36:14.264Z,39.20
2019-01-26T09:38:40.950Z,39.70
2019-01-26T09:41:08.048Z,40.60
2019-01-26T09:43:35.115Z,39.50
2019-01-26T09:46:01.821Z,39.40
2019-01-26T09:48:28.558Z,39.50
2019-01-26T09:50:55.652Z,39.40
2019-01-26T09:53:22.354Z,39.10
2019-01-26T09:55:49.113Z,39.20
2019-01-26T09:58:16.252Z,39.20
2019-01-26T10:00:43.301Z,39.20
2019-01-26T10:03:10.466Z,39.30
2019-01-26T10:05:37.177Z,39.30
2019-01-26T10:08:04.244Z,39.40
2019-01-26T10:10:31.441Z,39.40
2019-01-26T10:12:58.157Z,39.50
2019-01-26T10:15:25.188Z,39.40
2019-01-26T10:17:52.362Z,39.20
2019-01-26T10:20:19.521Z,39.30
2019-01-26T10:22:46.650Z,39.40
2019-01-26T10:25:13.829Z,39.00
2019-01-26T10:27:40.693Z,38.90
2019-01-26T10:30:07.893Z,38.90
2019-01-26T10:32:34.936Z,38.80
2019-01-26T10:35:02.165Z,38.50
2019-01-26T10:37:28.905Z,38.60
2019-01-26T10:39:55.566Z,38.50
2019-01-26T10:42:22.613Z,39.00
2019-01-26T10:44:49.831Z,39.30
2019-01-26T10:47:16.960Z,39.30
2019-01-26T10:49:44.080Z,38.90
2019-01-26T10:52:10.802Z,40.00
2019-01-26T10:54:38.642Z,40.90
2019-01-26T10:57:05.389Z,41.70
2019-01-26T10:59:32.495Z,41.20
2019-01-26T11:01:59.498Z,40.40
2019-01-26T11:04:26.267Z,39.80
2019-01-26T11:06:52.989Z,39.10
2019-01-26T11:09:20.149Z,39.00
2019-01-26T11:11:46.920Z,39.20
2019-01-26T11:14:13.582Z,39.20
2019-01-26T11:16:40.355Z,39.20
2019-01-26T11:19:07.931Z,39.90
2019-01-26T11:21:35.496Z,40.90
2019-01-26T11:24:02.269Z,41.20
2019-01-26T11:26:28.954Z,41.70
2019-01-26T11:28:56.023Z,41.90
2019-01-26T11:31:22.773Z,41.30
2019-01-26T11:33:49.918Z,41.10
2019-01-26T11:36:17.111Z,41.10
2019-01-26T11:38:44.399Z,41.50
2019-01-26T11:41:11.143Z,41.30
2019-01-26T11:43:37.841Z,41.20
2019-01-26T11:46:04.491Z,41.40
2019-01-26T11:48:31.320Z,41.80
2019-01-26T11:50:58.420Z,41.60
2019-01-26T11:53:25.479Z,41.50
2019-01-26T11:55:52.622Z,41.70
2019-01-26T11:58:19.692Z,41.70
2019-01-26T12:00:46.855Z,41.70
2019-01-26T12:03:13.961Z,41.50
2019-01-26T12:05:40.661Z,42.20
2019-01-26T12:08:07.770Z,42.10
2019-01-26T12:10:35.148Z,41.90
2019-01-26T12:13:02.269Z,41.40
2019-01-26T12:15:29.326Z,40.70
2019-01-26T12:17:56.465Z,41.30
2019-01-26T12:20:23.496Z,41.90
2019-01-26T12:22:50.559Z,42.50
2019-01-26T12:25:17.269Z,42.60
2019-01-26T12:27:44.351Z,42.80
2019-01-26T12:30:11.069Z,43.10
2019-01-26T12:32:37.781Z,43.50
2019-01-26T12:35:04.511Z,43.60
2019-01-26T12:37:31.186Z,43.20
2019-01-26T12:39:58.386Z,42.70
2019-01-26T12:42:25.492Z,42.60
2019-01-26T12:44:52.222Z,42.50
2019-01-26T12:47:18.867Z,42.00
2019-01-26T12:49:46.020Z,42.10
2019-01-26T12:52:13.073Z,42.80
2019-01-26T12:54:39.730Z,42.00
2019-01-26T12:57:06.983Z,41.90
2019-01-26T12:59:34.135Z,42.40
2019-01-26T13:02:00.829Z,42.60
2019-01-26T13:04:28.078Z,42.80
2019-01-26T13:06:55.172Z,42.70
2019-01-26T13:09:22.989Z,43.30
2019-01-26T13:11:50.220Z,43.80
2019-01-26T13:14:17.988Z,44.50
2019-01-26T13:16:45.107Z,43.70
2019-01-26T13:19:12.319Z,43.80
2019-01-26T13:21:39.902Z,43.20
2019-01-26T13:24:06.628Z,42.90
2019-01-26T13:26:33.710Z,43.20
2019-01-26T13:29:00.856Z,43.60
2019-01-26T13:31:28.035Z,43.40
2019-01-26T13:33:55.160Z,42.90
2019-01-26T13:36:22.315Z,43.20
2019-01-26T13:38:50.882Z,43.70
2019-01-26T13:41:17.587Z,44.40
2019-01-26T13:43:44.781Z,45.50
2019-01-26T13:46:11.928Z,45.10
2019-01-26T13:48:39.755Z,44.20
2019-01-26T13:51:12.962Z,44.00
2019-01-26T13:53:39.502Z,44.00
2019-01-26T13:56:03.499Z,43.70
2019-01-26T13:58:30.625Z,43.90
2019-01-26T14:00:57.306Z,44.10
2019-01-26T14:03:25.309Z,44.00
2019-01-26T14:05:52.027Z,44.40
2019-01-26T14:08:19.213Z,44.70
2019-01-26T14:10:46.432Z,44.90
2019-01-26T14:13:13.528Z,45.30
2019-01-26T14:15:40.226Z,45.30
2019-01-26T14:18:07.336Z,45.80
2019-01-26T14:20:34.022Z,46.00
2019-01-26T14:23:00.744Z,46.60
2019-01-26T14:25:27.473Z,46.90
2019-01-26T14:27:54.555Z,46.80
2019-01-26T14:30:21.275Z,46.90
2019-01-26T14:32:52.475Z,46.40
2019-01-26T14:35:16.316Z,47.20
2019-01-26T14:37:43.013Z,48.10
2019-01-26T14:40:10.145Z,47.70
2019-01-26T14:42:37.311Z,48.20
2019-01-26T14:45:04.444Z,48.60
2019-01-26T14:50:23.356Z,49.00
2019-01-26T14:52:50.489Z,47.80
2019-01-26T14:55:17.539Z,46.80
2019-01-26T14:57:44.571Z,46.00
2019-01-26T15:00:11.620Z,46.20
2019-01-26T15:02:38.819Z,46.80
2019-01-26T15:05:05.935Z,47.60
2019-01-26T15:07:32.980Z,47.80
2019-01-26T15:09:59.668Z,47.80
2019-01-26T15:12:26.911Z,47.70
2019-01-26T15:14:53.560Z,47.40
2019-01-26T15:17:20.263Z,47.70
2019-01-26T15:19:47.382Z,48.10
2019-01-26T15:22:14.071Z,48.30
2019-01-26T15:24:40.726Z,48.50
2019-01-26T15:27:07.496Z,49.80
2019-01-26T15:29:36.695Z,50.40
2019-01-26T15:32:03.907Z,50.30
2019-01-26T15:34:31.071Z,49.70
2019-01-26T15:36:58.200Z,49.80
2019-01-26T15:39:25.337Z,50.00
2019-01-26T15:41:52.046Z,49.90
2019-01-26T15:44:19.107Z,49.20
2019-01-26T15:46:46.266Z,50.50
2019-01-26T15:49:13.408Z,50.90
2019-01-26T15:51:41.082Z,51.10
2019-01-26T15:54:08.260Z,50.50
2019-01-26T15:56:35.406Z,50.20
2019-01-26T15:59:02.148Z,48.60
2019-01-26T16:01:29.799Z,47.80
2019-01-26T16:03:56.926Z,47.60
2019-01-26T16:06:23.646Z,48.00
2019-01-26T16:08:50.719Z,48.40
2019-01-26T16:11:17.412Z,47.80
2019-01-26T16:13:44.178Z,47.00
2019-01-26T16:16:11.257Z,47.20
2019-01-26T16:18:38.604Z,47.90
2019-01-26T16:21:05.802Z,48.20
2019-01-26T16:23:32.508Z,49.00
2019-01-26T16:25:59.377Z,49.20
2019-01-26T16:28:26.493Z,48.90
2019-01-26T16:30:53.689Z,48.40
2019-01-26T16:33:21.425Z,47.30
2019-01-26T16:35:49.195Z,47.00
2019-01-26T16:38:16.292Z,46.90
2019-01-26T16:40:42.953Z,46.80
2019-01-26T16:43:10.160Z,47.30
2019-01-26T16:45:37.786Z,47.70
2019-01-26T16:48:04.639Z,48.10
2019-01-26T16:50:31.765Z,48.20
2019-01-26T16:52:58.898Z,47.90
2019-01-26T16:55:26.154Z,47.30
2019-01-26T16:57:53.397Z,46.70
2019-01-26T17:00:20.457Z,46.20
2019-01-26T17:02:48.170Z,45.60
2019-01-26T17:05:16.016Z,45.80
2019-01-26T17:07:43.110Z,46.30
2019-01-26T17:10:10.853Z,46.20
2019-01-26T17:12:38.081Z,45.90
2019-01-26T17:15:05.770Z,46.00
2019-01-26T17:17:32.897Z,45.50
2019-01-26T17:20:02.310Z,45.20
2019-01-26T17:22:31.062Z,44.70
2019-01-26T17:24:58.855Z,44.50
2019-01-26T17:27:25.958Z,44.40
2019-01-26T17:30:09.324Z,44.80
2019-01-26T17:32:28.155Z,45.20
2019-01-26T17:34:55.828Z,45.40
2019-01-26T17:37:22.963Z,45.20
2019-01-26T17:39:49.634Z,45.60
2019-01-26T17:42:16.432Z,46.00
2019-01-26T17:44:43.501Z,46.50
2019-01-26T17:47:10.230Z,45.80
2019-01-26T17:49:37.393Z,45.80
2019-01-26T17:52:04.116Z,46.00
2019-01-26T17:54:30.795Z,46.70
2019-01-26T17:56:57.527Z,47.10
2019-01-26T17:59:24.640Z,47.60
2019-01-26T18:01:51.405Z,48.00
2019-01-26T18:04:18.577Z,48.00
2019-01-26T18:06:45.334Z,48.10
2019-01-26T18:09:12.115Z,48.10
2019-01-26T18:11:39.174Z,48.40
2019-01-26T18:14:05.939Z,48.90
2019-01-26T18:16:32.669Z,48.70
2019-01-26T18:18:59.315Z,48.20
2019-01-26T18:21:26.047Z,47.70
2019-01-26T18:23:53.114Z,47.30
2019-01-26T18:26:20.245Z,47.30
2019-01-26T18:28:47.020Z,47.30
2019-01-26T18:31:14.134Z,46.80
2019-01-26T18:33:40.855Z,47.30
2019-01-26T18:36:07.578Z,46.70
2019-01-26T18:38:34.312Z,46.10
2019-01-26T18:41:00.961Z,45.80
2019-01-26T18:43:28.156Z,45.70
2019-01-26T18:45:55.083Z,46.30
2019-01-26T18:48:22.147Z,45.80
2019-01-26T18:50:55.895Z,45.50
2019-01-26T18:53:18.574Z,45.50
2019-01-26T18:55:45.763Z,46.20
2019-01-26T18:58:12.955Z,46.90
2019-01-26T19:00:39.670Z,47.40
2019-01-26T19:03:06.473Z,47.10
2019-01-26T19:05:33.152Z,46.90
2019-01-26T19:07:59.872Z,46.70
2019-01-26T19:10:26.864Z,46.40
2019-01-26T19:12:54.247Z,46.30
2019-01-26T19:15:22.621Z,46.70
2019-01-26T19:18:01.739Z,47.40
2019-01-26T19:20:18.094Z,47.40
2019-01-26T19:22:44.873Z,47.40
2019-01-26T19:25:11.898Z,47.80
2019-01-26T19:27:45.181Z,47.60
2019-01-26T19:30:11.927Z,47.40
2019-01-26T19:32:39.863Z,47.50
2019-01-26T19:35:07.163Z,47.30
2019-01-26T19:37:34.397Z,46.80
2019-01-26T19:40:01.172Z,45.60
2019-01-26T19:42:27.847Z,45.70
2019-01-26T19:44:56.503Z,45.30
2019-01-26T19:47:23.580Z,44.80
2019-01-26T19:49:50.754Z,44.80
2019-01-26T19:52:17.498Z,44.90
2019-01-26T19:54:44.478Z,44.80
2019-01-26T19:57:11.207Z,44.70
2019-01-26T19:59:37.937Z,45.30
2019-01-26T20:02:04.598Z,45.10
2019-01-26T20:04:31.296Z,44.80
2019-01-26T20:06:58.069Z,44.80
2019-01-26T20:09:24.780Z,44.60
2019-01-26T20:11:51.457Z,44.70
2019-01-26T20:14:20.844Z,44.70
2019-01-26T20:16:47.945Z,44.40
2019-01-26T20:19:15.103Z,44.10
2019-01-26T20:21:42.265Z,44.20
2019-01-26T20:24:09.444Z,44.00
2019-01-26T20:26:36.546Z,44.00
2019-01-26T20:29:03.296Z,44.10
2019-01-26T20:31:30.109Z,44.70
2019-01-26T20:33:57.312Z,44.70
2019-01-26T20:36:23.992Z,45.60
2019-01-26T20:38:51.064Z,45.20
2019-01-26T20:41:18.385Z,44.90
2019-01-26T20:43:45.070Z,44.60
2019-01-26T20:46:11.876Z,44.90
2019-01-26T20:48:38.666Z,44.90
2019-01-26T20:51:05.355Z,44.60
2019-01-26T20:53:33.085Z,44.30
2019-01-26T20:56:00.311Z,44.30
2019-01-26T20:58:27.485Z,44.50
2019-01-26T21:00:54.732Z,44.20
2019-01-26T21:03:21.684Z,44.10
2019-01-26T21:05:48.400Z,44.60
2019-01-26T21:08:18.119Z,44.90
2019-01-26T21:10:44.804Z,44.90
2019-01-26T21:13:16.239Z,44.70
2019-01-26T21:15:40.352Z,44.50
2019-01-26T21:18:07.006Z,44.30
2019-01-26T21:20:33.716Z,44.30
2019-01-26T21:23:00.451Z,44.70
2019-01-26T21:25:28.389Z,44.80
2019-01-26T21:27:56.000Z,44.80
2019-01-26T21:30:23.141Z,45.00
2019-01-26T21:32:50.226Z,44.90
2019-01-26T21:35:16.964Z,44.90
2019-01-26T21:37:43.686Z,44.80
2019-01-26T21:40:10.755Z,44.90
2019-01-26T21:42:37.779Z,44.90
2019-01-26T21:45:04.973Z,45.00
2019-01-26T21:47:31.974Z,44.90
2019-01-26T21:49:59.031Z,44.80
2019-01-26T21:52:25.731Z,45.20
2019-01-26T21:54:53.319Z,45.00
2019-01-26T21:57:20.329Z,44.80
2019-01-26T21:59:47.452Z,44.90
2019-01-26T22:02:14.591Z,44.80
2019-01-26T22:04:41.876Z,45.00
2019-01-26T22:07:08.791Z,44.60
2019-01-26T22:09:37.058Z,44.10
2019-01-26T22:12:04.649Z,43.90
2019-01-26T22:14:31.420Z,43.40
2019-01-26T22:16:58.626Z,43.60
2019-01-26T22:19:25.791Z,43.60
2019-01-26T22:21:52.510Z,43.50
2019-01-26T22:24:19.228Z,43.30
2019-01-26T22:26:46.066Z,43.20
2019-01-26T22:29:13.242Z,43.30
2019-01-26T22:31:40.402Z,43.40
2019-01-26T22:34:07.545Z,43.50
2019-01-26T22:36:34.411Z,43.60
2019-01-26T22:40:31.658Z,43.70
2019-01-26T22:43:06.942Z,43.90
2019-01-26T22:45:42.331Z,43.90
2019-01-26T22:48:15.858Z,44.00
2019-01-26T22:50:49.679Z,44.10
2019-01-26T22:53:24.526Z,43.80
2019-01-26T22:55:59.924Z,43.40
2019-01-26T22:58:35.017Z,43.30
2019-01-26T23:01:30.642Z,43.10
2019-01-26T23:05:00.974Z,43.10
2019-01-26T23:08:02.352Z,43.30
2019-01-26T23:11:35.282Z,43.70
2019-01-26T23:14:49.189Z,43.70
2019-01-26T23:18:29.470Z,43.70
2019-01-26T23:21:54.646Z,43.70
2019-01-26T23:25:34.346Z,43.80
2019-01-26T23:29:07.141Z,43.60
2019-01-26T23:31:42.091Z,43.60
2019-01-26T23:34:16.472Z,44.00
2019-01-26T23:36:50.991Z,44.00
2019-01-26T23:39:25.010Z,43.80
2019-01-26T23:42:00.032Z,43.80
2019-01-26T23:44:34.967Z,43.90
2019-01-26T23:47:09.529Z,43.70
2019-01-26T23:49:44.359Z,43.60
2019-01-26T23:52:18.300Z,43.70
2019-01-26T23:54:53.763Z,44.00
2019-01-26T23:57:27.591Z,43.80
